Time;durP1;ratioP1;P1;durP2;ratioP2;P2;SDS_P1;SDS_P2;PMS_P1;PMS_P2;Temp;Humidity;BMP_temperature;BMP_pressure;BME280_temperature;BME280_humidity;BME280_pressure;Samples;Min_cycle;Max_cycle;Signal;HPM_P1;HPM_P2
2023/02/09 00:02:10;;;;;;;12.83;8.00;;;;;;;-7.11;100.00;102941.94;5107076;28;20557;-72
2023/02/09 00:04:38;;;;;;;12.63;7.27;;;;;;;-7.14;100.00;102942.59;5103344;27;20451;-72
2023/02/09 00:07:05;;;;;;;16.70;7.60;;;;;;;-7.18;100.00;102939.66;5087618;28;20565;-72
2023/02/09 00:09:32;;;;;;;16.90;7.60;;;;;;;-7.25;100.00;102928.13;5109346;28;20500;-71
2023/02/09 00:14:54;;;;;;;12.27;7.53;;;;;;;-7.25;100.00;102921.38;5047004;28;20525;-72
2023/02/09 00:17:23;;;;;;;16.00;7.50;;;;;;;-7.25;100.00;102928.13;5072790;28;20457;-71
2023/02/09 00:19:53;;;;;;;16.60;8.47;;;;;;;-7.28;100.00;102928.78;5119395;22;20990;-75
2023/02/09 00:22:20;;;;;;;18.40;7.93;;;;;;;-7.34;100.00;102924.81;5061824;28;20547;-76
2023/02/09 00:24:46;;;;;;;16.03;7.47;;;;;;;-7.35;100.00;102917.97;5064919;28;20483;-75
2023/02/09 00:27:12;;;;;;;15.17;7.77;;;;;;;-7.32;100.00;102910.63;5061991;28;20470;-76
2023/02/09 00:29:40;;;;;;;16.97;7.60;;;;;;;-7.30;100.00;102917.63;5058781;28;20454;-75
2023/02/09 00:32:08;;;;;;;17.50;8.13;;;;;;;-7.30;100.00;102910.00;5057760;28;20451;-75
2023/02/09 00:34:34;;;;;;;15.30;7.77;;;;;;;-7.30;100.00;102904.94;5078495;22;20495;-71
2023/02/09 00:37:02;;;;;;;16.97;8.10;;;;;;;-7.29;100.00;102898.22;5101855;28;21012;-72
2023/02/09 00:39:29;;;;;;;17.23;7.93;;;;;;;-7.33;100.00;102893.66;5107569;27;20465;-73
2023/02/09 00:42:06;;;;;;;16.43;7.83;;;;;;;-7.33;100.00;102897.06;5093823;28;20987;-73
2023/02/09 00:44:32;;;;;;;15.20;7.67;;;;;;;-7.36;100.00;102891.75;5088710;28;20515;-73
2023/02/09 00:46:59;;;;;;;16.40;7.63;;;;;;;-7.34;100.00;102891.88;5098875;28;21074;-73
2023/02/09 00:49:25;;;;;;;12.43;7.00;;;;;;;-7.42;100.00;102889.59;5079499;28;20509;-73
2023/02/09 00:51:52;;;;;;;14.47;7.83;;;;;;;-7.44;100.00;102885.13;5092574;28;21027;-73
2023/02/09 00:54:20;;;;;;;16.97;7.90;;;;;;;-7.50;100.00;102880.44;5078562;28;20493;-73
2023/02/09 00:56:46;;;;;;;15.30;7.43;;;;;;;-7.56;100.00;102881.59;5071976;28;20460;-72
2023/02/09 00:59:13;;;;;;;17.33;7.00;;;;;;;-7.61;100.00;102887.16;5077379;28;20746;-72
2023/02/09 01:01:40;;;;;;;12.90;6.70;;;;;;;-7.73;100.00;102886.13;5084225;28;21169;-73
2023/02/09 01:04:07;;;;;;;15.20;7.20;;;;;;;-7.71;100.00;102888.81;5088655;28;20476;-71
2023/02/09 01:06:34;;;;;;;12.37;7.23;;;;;;;-7.70;100.00;102890.59;5091847;28;20479;-73
2023/02/09 01:09:01;;;;;;;18.30;8.00;;;;;;;-7.82;100.00;102895.50;5072027;28;20463;-72
2023/02/09 01:11:29;;;;;;;12.90;6.80;;;;;;;-7.91;100.00;102882.94;5093733;28;20471;-73
2023/02/09 01:13:57;;;;;;;17.70;7.47;;;;;;;-7.92;100.00;102883.69;5073361;28;20523;-72
2023/02/09 01:16:27;;;;;;;14.60;7.27;;;;;;;-7.86;100.00;102881.69;5092284;28;20443;-73
2023/02/09 01:18:54;;;;;;;16.27;6.83;;;;;;;-7.81;100.00;102885.50;5093928;28;21042;-72
2023/02/09 01:21:22;;;;;;;13.67;6.77;;;;;;;-7.86;100.00;102873.19;5076901;28;20458;-72
2023/02/09 01:23:48;;;;;;;14.10;7.23;;;;;;;-7.90;100.00;102868.63;5073263;28;20487;-73
2023/02/09 01:26:17;;;;;;;23.83;9.00;;;;;;;-7.96;100.00;102874.06;5077753;28;20474;-72
2023/02/09 01:28:49;;;;;;;15.37;7.83;;;;;;;-7.98;100.00;102873.06;5075665;28;20644;-73
2023/02/09 01:31:22;;;;;;;13.23;6.80;;;;;;;-8.00;100.00;102860.25;5075300;28;20464;-73
2023/02/09 01:33:50;;;;;;;13.60;6.50;;;;;;;-8.05;100.00;102861.50;5068183;28;20451;-73
2023/02/09 01:36:18;;;;;;;13.43;6.87;;;;;;;-8.14;100.00;102864.88;5097721;28;20483;-73
2023/02/09 01:38:45;;;;;;;14.93;7.27;;;;;;;-8.26;100.00;102859.69;5078011;28;20467;-72
2023/02/09 01:41:12;;;;;;;13.23;7.87;;;;;;;-8.14;100.00;102864.88;5078046;28;20469;-73
2023/02/09 01:43:52;;;;;;;15.97;7.67;;;;;;;-8.12;100.00;102863.41;5075795;28;20694;-73
2023/02/09 01:46:19;;;;;;;18.23;7.80;;;;;;;-8.21;100.00;102859.31;5090222;28;20851;-72
2023/02/09 01:48:47;;;;;;;15.50;6.37;;;;;;;-8.25;100.00;102848.78;5071737;28;20494;-72
2023/02/09 01:51:14;;;;;;;19.67;7.90;;;;;;;-8.31;100.00;102845.75;5090765;28;20440;-73
2023/02/09 01:53:41;;;;;;;15.73;7.93;;;;;;;-8.39;100.00;102847.59;5100081;28;20521;-73
2023/02/09 01:56:13;;;;;;;16.87;8.10;;;;;;;-8.33;100.00;102848.13;5091374;28;21498;-73
2023/02/09 01:58:39;;;;;;;13.73;6.47;;;;;;;-8.32;100.00;102849.00;5075674;28;20562;-73
2023/02/09 02:01:07;;;;;;;11.17;6.37;;;;;;;-8.33;100.00;102847.25;5093316;28;20468;-72
2023/02/09 02:03:34;;;;;;;16.20;7.50;;;;;;;-8.51;100.00;102837.34;5091960;28;20483;-73
2023/02/09 02:06:05;;;;;;;14.97;6.50;;;;;;;-8.41;100.00;102839.91;5088721;28;21082;-72
2023/02/09 02:08:35;;;;;;;13.73;6.27;;;;;;;-8.45;100.00;102834.47;5076673;28;21010;-73
2023/02/09 02:11:02;;;;;;;16.13;7.17;;;;;;;-8.62;100.00;102836.44;5089595;28;20452;-71
2023/02/09 02:13:29;;;;;;;15.73;7.27;;;;;;;-8.61;100.00;102834.78;5086728;28;20464;-73
2023/02/09 02:16:02;;;;;;;10.63;6.50;;;;;;;-8.68;100.00;102835.00;5074869;28;20479;-73
2023/02/09 02:18:48;;;;;;;12.80;5.97;;;;;;;-8.85;100.00;102841.09;5096830;28;20464;-72
2023/02/09 02:21:44;;;;;;;12.43;5.33;;;;;;;-9.17;100.00;102827.38;5089192;28;20452;-73
2023/02/09 02:24:55;;;;;;;14.70;6.17;;;;;;;-9.11;100.00;102823.63;5095192;28;20551;-72
2023/02/09 02:27:31;;;;;;;10.37;6.17;;;;;;;-9.13;100.00;102820.97;5090222;28;20478;-73
2023/02/09 02:30:28;;;;;;;11.10;5.93;;;;;;;-9.03;100.00;102817.63;5098648;28;20463;-73
2023/02/09 02:33:26;;;;;;;10.13;6.10;;;;;;;-8.97;100.00;102808.03;5092103;28;20460;-73
2023/02/09 02:35:58;;;;;;;11.17;5.87;;;;;;;-8.95;100.00;102814.13;5090794;28;20480;-73
2023/02/09 02:44:52;;;;;;;10.80;4.77;;;;;;;-9.01;100.00;102796.75;5093107;28;20811;-72
2023/02/09 02:47:20;;;;;;;12.80;4.93;;;;;;;-9.05;100.00;102803.97;5089743;28;20563;-73
2023/02/09 02:49:53;;;;;;;10.93;5.80;;;;;;;-9.08;100.00;102796.97;5077984;28;20460;-72
2023/02/09 02:52:19;;;;;;;8.60;5.03;;;;;;;-9.02;100.00;102792.47;5090485;28;20461;-72
2023/02/09 02:54:51;;;;;;;9.33;5.30;;;;;;;-9.02;100.00;102791.56;5072051;28;20472;-73
2023/02/09 02:57:21;;;;;;;11.17;4.93;;;;;;;-9.05;100.00;102782.09;5093320;28;20547;-73
2023/02/09 02:59:52;;;;;;;10.20;4.77;;;;;;;-9.06;100.00;102782.81;5095143;28;20452;-72
2023/02/09 03:02:23;;;;;;;9.97;5.00;;;;;;;-9.04;100.00;102777.91;5087291;28;20466;-71
2023/02/09 03:04:54;;;;;;;10.70;5.87;;;;;;;-9.00;100.00;102783.38;5084521;28;20481;-73
2023/02/09 03:07:21;;;;;;;9.63;5.90;;;;;;;-8.92;100.00;102776.47;5063952;28;20466;-73
2023/02/09 03:09:48;;;;;;;10.53;5.23;;;;;;;-8.90;100.00;102785.06;5094735;28;20501;-72
2023/02/09 03:12:23;;;;;;;10.53;5.67;;;;;;;-8.86;100.00;102781.19;5092604;28;20559;-71
2023/02/09 03:15:06;;;;;;;11.80;5.57;;;;;;;-8.85;100.00;102778.75;5076658;28;20502;-71
2023/02/09 03:17:43;;;;;;;7.73;4.50;;;;;;;-8.79;100.00;102768.31;5092716;28;20462;-72
2023/02/09 03:20:16;;;;;;;8.63;4.93;;;;;;;-8.80;100.00;102772.47;5074439;28;20459;-72
2023/02/09 03:22:47;;;;;;;11.60;5.57;;;;;;;-8.73;100.00;102768.81;5073572;28;20460;-72
2023/02/09 03:25:18;;;;;;;12.40;5.23;;;;;;;-8.70;100.00;102766.56;5098371;28;20502;-71
2023/02/09 03:27:48;;;;;;;9.87;5.00;;;;;;;-8.67;100.00;102768.47;5095341;28;20470;-72
2023/02/09 03:30:17;;;;;;;10.93;5.27;;;;;;;-8.65;100.00;102777.97;5091930;28;20453;-71
2023/02/09 03:32:46;;;;;;;9.43;5.37;;;;;;;-8.62;100.00;102763.06;5091775;28;20459;-72
2023/02/09 03:35:17;;;;;;;10.43;5.33;;;;;;;-8.65;100.00;102762.78;5091866;28;20488;-72
2023/02/09 03:37:43;;;;;;;9.20;4.63;;;;;;;-8.60;100.00;102768.22;5070338;28;20457;-73
2023/02/09 03:40:10;;;;;;;10.40;5.27;;;;;;;-8.54;100.00;102760.31;5070892;28;21115;-71
2023/02/09 03:42:37;;;;;;;10.10;5.00;;;;;;;-8.52;100.00;102763.84;5073892;28;20453;-71
2023/02/09 03:45:06;;;;;;;8.00;4.53;;;;;;;-8.52;100.00;102757.13;5065010;28;20487;-70
2023/02/09 03:47:33;;;;;;;12.70;5.57;;;;;;;-8.49;100.00;102754.88;5073473;28;20457;-71
2023/02/09 03:49:59;;;;;;;8.37;4.97;;;;;;;-8.44;100.00;102758.69;5069432;28;20456;-71
2023/02/09 03:52:29;;;;;;;11.47;5.40;;;;;;;-8.45;100.00;102758.56;5072464;28;20486;-73
2023/02/09 03:54:56;;;;;;;9.50;5.40;;;;;;;-8.54;100.00;102760.31;5067322;28;20581;-70
2023/02/09 03:57:22;;;;;;;11.30;5.83;;;;;;;-8.51;100.00;102752.94;5071761;28;20830;-73
2023/02/09 03:59:48;;;;;;;12.83;5.73;;;;;;;-8.47;100.00;102752.47;5049922;28;20461;-72
2023/02/09 04:02:15;;;;;;;11.77;5.20;;;;;;;-8.44;100.00;102753.63;5055175;28;20464;-72
2023/02/09 04:04:41;;;;;;;12.27;6.40;;;;;;;-8.52;100.00;102756.25;5073572;28;21227;-72
2023/02/09 04:07:08;;;;;;;11.70;5.77;;;;;;;-8.53;100.00;102755.38;5074176;28;20458;-72
2023/02/09 04:09:37;;;;;;;11.30;5.67;;;;;;;-8.56;100.00;102755.09;5073767;28;20919;-71
2023/02/09 04:12:03;;;;;;;10.10;5.87;;;;;;;-8.63;100.00;102750.28;5070626;28;20472;-73
2023/02/09 04:14:29;;;;;;;9.07;5.07;;;;;;;-8.46;100.00;102749.16;5074283;28;20813;-72
2023/02/09 04:16:56;;;;;;;9.60;5.90;;;;;;;-8.40;100.00;102752.22;5076050;28;20516;-72
2023/02/09 04:19:22;;;;;;;10.67;6.17;;;;;;;-8.54;100.00;102735.88;5073724;28;20478;-72
2023/02/09 04:21:49;;;;;;;13.20;6.37;;;;;;;-8.67;100.00;102743.16;5076608;28;20456;-72
2023/02/09 04:24:21;;;;;;;13.70;5.83;;;;;;;-8.88;100.00;102739.69;5080102;28;20472;-73
2023/02/09 04:26:48;;;;;;;7.77;4.57;;;;;;;-8.81;100.00;102739.44;5074996;28;20440;-73
2023/02/09 04:29:15;;;;;;;10.37;5.57;;;;;;;-8.83;100.00;102740.97;5075488;28;20472;-72
2023/02/09 04:31:41;;;;;;;13.03;5.33;;;;;;;-8.96;100.00;102742.44;5078886;28;20463;-72
2023/02/09 04:34:08;;;;;;;14.17;6.30;;;;;;;-9.14;100.00;102741.72;5071812;28;20465;-72
2023/02/09 04:36:34;;;;;;;9.30;5.17;;;;;;;-9.11;100.00;102738.59;5071553;28;20828;-71
2023/02/09 04:39:01;;;;;;;13.07;5.40;;;;;;;-9.05;100.00;102746.69;5056617;28;20441;-71
2023/02/09 04:41:27;;;;;;;10.47;5.27;;;;;;;-8.95;100.00;102743.34;5075774;28;20468;-72
2023/02/09 04:43:55;;;;;;;9.83;5.33;;;;;;;-9.02;100.00;102751.13;5051655;28;20459;-71
2023/02/09 04:46:21;;;;;;;14.30;5.63;;;;;;;-8.89;100.00;102735.41;5075902;28;20464;-72
2023/02/09 04:48:48;;;;;;;10.20;5.57;;;;;;;-8.71;100.00;102733.56;5057518;28;20500;-73
2023/02/09 04:51:14;;;;;;;11.60;5.03;;;;;;;-8.88;100.00;102744.72;5058033;28;20460;-72
2023/02/09 04:53:41;;;;;;;10.47;5.77;;;;;;;-9.13;100.00;102750.19;5069556;28;20494;-72
2023/02/09 04:56:07;;;;;;;14.63;5.73;;;;;;;-9.01;100.00;102747.84;5076221;28;20478;-72
2023/02/09 05:01:22;;;;;;;8.30;4.27;;;;;;;-9.28;100.00;102742.16;5075863;28;20468;-72
2023/02/09 05:03:48;;;;;;;9.50;5.70;;;;;;;-9.06;100.00;102739.84;5073246;28;20452;-72
2023/02/09 05:06:15;;;;;;;9.83;5.13;;;;;;;-9.11;100.00;102732.63;5057407;28;20485;-73
2023/02/09 05:08:41;;;;;;;8.57;4.60;;;;;;;-9.21;100.00;102728.44;5078053;28;20481;-72
2023/02/09 05:11:08;;;;;;;9.13;5.00;;;;;;;-9.22;100.00;102727.53;5045893;28;20678;-72
2023/02/09 05:13:34;;;;;;;11.53;5.90;;;;;;;-9.12;100.00;102729.22;5053998;28;20441;-73
2023/02/09 05:16:05;;;;;;;10.73;6.20;;;;;;;-9.04;100.00;102729.88;5074251;28;20475;-71
2023/02/09 05:18:33;;;;;;;9.00;4.67;;;;;;;-8.96;100.00;102729.78;5074551;28;20978;-71
2023/02/09 05:21:00;;;;;;;8.37;4.47;;;;;;;-9.08;100.00;102726.19;5071145;28;20476;-71
2023/02/09 05:23:29;;;;;;;12.60;4.63;;;;;;;-9.01;100.00;102720.91;5076090;28;20452;-73
2023/02/09 05:25:55;;;;;;;10.83;4.23;;;;;;;-8.93;100.00;102728.28;5054925;28;20828;-72
2023/02/09 05:28:22;;;;;;;8.30;5.57;;;;;;;-8.92;100.00;102720.81;5072051;28;20476;-72
2023/02/09 05:30:52;;;;;;;8.27;5.37;;;;;;;-9.01;100.00;102732.69;5056165;28;20505;-71
2023/02/09 05:33:19;;;;;;;10.30;5.97;;;;;;;-9.01;100.00;102727.63;5072521;28;20468;-72
2023/02/09 05:35:46;;;;;;;14.90;5.90;;;;;;;-9.34;100.00;102729.88;5066963;28;20913;-72
2023/02/09 05:38:13;;;;;;;9.73;5.33;;;;;;;-9.68;100.00;102732.69;5066596;28;20468;-72
2023/02/09 05:40:39;;;;;;;8.23;4.73;;;;;;;-9.64;100.00;102734.72;5068556;28;20449;-71
2023/02/09 05:43:06;;;;;;;14.20;5.93;;;;;;;-9.60;100.00;102732.63;5069284;28;20491;-72
2023/02/09 05:45:32;;;;;;;11.37;5.33;;;;;;;-9.53;100.00;102721.44;5066180;28;20488;-72
2023/02/09 05:47:58;;;;;;;13.60;6.23;;;;;;;-9.50;100.00;102713.22;5064586;28;20982;-72
2023/02/09 05:50:25;;;;;;;12.03;6.17;;;;;;;-9.27;100.00;102711.06;5060722;28;20797;-72
2023/02/09 05:52:58;;;;;;;14.10;7.03;;;;;;;-9.30;100.00;102705.78;5062104;28;20507;-73
2023/02/09 05:55:24;;;;;;;11.10;5.97;;;;;;;-9.39;100.00;102705.84;5065087;28;20533;-72
2023/02/09 05:57:51;;;;;;;10.03;6.30;;;;;;;-9.24;100.00;102702.88;5062996;28;20460;-72
2023/02/09 06:00:18;;;;;;;14.83;6.50;;;;;;;-9.21;100.00;102708.22;5045808;28;20875;-72
2023/02/09 06:02:44;;;;;;;11.20;6.47;;;;;;;-9.30;100.00;102705.78;5068068;28;20653;-71
2023/02/09 06:05:10;;;;;;;13.23;6.70;;;;;;;-9.33;100.00;102716.47;5065641;28;20581;-72
2023/02/09 06:07:37;;;;;;;15.67;7.87;;;;;;;-9.27;100.00;102705.13;5073149;28;20452;-71
2023/02/09 06:10:05;;;;;;;10.60;5.67;;;;;;;-9.20;100.00;102709.97;5052127;28;20546;-72
2023/02/09 06:12:32;;;;;;;13.93;5.50;;;;;;;-9.30;100.00;102710.81;5071686;28;20463;-72
2023/02/09 06:14:59;;;;;;;12.57;6.03;;;;;;;-9.50;100.00;102713.22;5071466;28;20496;-72
2023/02/09 06:17:25;;;;;;;13.07;5.80;;;;;;;-9.40;100.00;102706.59;5075805;28;20957;-73
2023/02/09 06:19:51;;;;;;;11.83;5.57;;;;;;;-9.35;100.00;102701.94;5070183;28;20452;-72
2023/02/09 06:22:18;;;;;;;10.07;5.77;;;;;;;-9.39;100.00;102703.31;5071563;28;20448;-72
2023/02/09 06:24:44;;;;;;;10.70;5.23;;;;;;;-9.22;100.00;102711.47;5063291;28;20476;-72
2023/02/09 06:27:13;;;;;;;11.73;5.60;;;;;;;-9.19;100.00;102699.13;5074171;28;20461;-71
2023/02/09 06:29:39;;;;;;;10.37;6.73;;;;;;;-9.25;100.00;102704.53;5056083;28;20477;-72
2023/02/09 06:32:06;;;;;;;10.73;6.63;;;;;;;-9.42;100.00;102702.16;5068282;28;20551;-71
2023/02/09 06:34:40;;;;;;;10.13;6.07;;;;;;;-9.42;100.00;102713.16;5077214;28;21008;-72
2023/02/09 06:37:07;;;;;;;16.00;7.80;;;;;;;-9.38;100.00;102720.25;4980810;28;20481;-73
2023/02/09 06:39:33;;;;;;;19.00;8.77;;;;;;;-9.29;100.00;102721.81;4988287;28;20542;-73
2023/02/09 06:42:00;;;;;;;13.03;7.20;;;;;;;-9.19;100.00;102721.88;5003948;28;20490;-73
2023/02/09 06:44:28;;;;;;;11.63;6.17;;;;;;;-9.31;100.00;102718.28;4999307;28;20553;-74
2023/02/09 06:46:54;;;;;;;16.43;6.83;;;;;;;-9.26;100.00;102715.38;5009551;28;20460;-73
2023/02/09 06:49:22;;;;;;;14.53;6.60;;;;;;;-9.16;100.00;102733.13;5009858;28;21052;-74
2023/02/09 06:51:49;;;;;;;13.93;7.03;;;;;;;-9.19;100.00;102724.41;5009197;28;20514;-74
2023/02/09 06:54:16;;;;;;;12.57;6.73;;;;;;;-9.08;100.00;102722.78;5000437;28;20800;-72
2023/02/09 06:56:42;;;;;;;12.20;6.37;;;;;;;-9.00;100.00;102719.31;5006009;28;20471;-73
2023/02/09 06:59:08;;;;;;;16.33;6.37;;;;;;;-9.05;100.00;102718.91;5002823;28;20467;-74
2023/02/09 07:01:36;;;;;;;13.20;7.53;;;;;;;-8.98;100.00;102728.78;4994596;28;20489;-72
2023/02/09 07:04:02;;;;;;;16.53;6.60;;;;;;;-8.99;100.00;102718.53;5002298;28;20464;-73
2023/02/09 07:06:29;;;;;;;12.17;6.47;;;;;;;-8.94;100.00;102714.75;5006268;28;20471;-73
2023/02/09 07:08:55;;;;;;;15.57;7.90;;;;;;;-8.88;100.00;102705.19;5028123;28;20477;-74
2023/02/09 07:11:22;;;;;;;12.93;6.60;;;;;;;-8.77;100.00;102713.69;5006324;28;20472;-73
2023/02/09 07:13:48;;;;;;;15.60;6.77;;;;;;;-8.72;100.00;102709.91;5005880;28;20823;-74
2023/02/09 07:16:15;;;;;;;16.47;7.90;;;;;;;-8.63;100.00;102704.75;4990585;28;20459;-73
2023/02/09 07:18:43;;;;;;;14.33;7.20;;;;;;;-8.63;100.00;102702.22;5025266;28;20517;-74
2023/02/09 07:21:14;;;;;;;16.80;7.97;;;;;;;-8.69;100.00;102694.97;5008267;28;20574;-74
2023/02/09 07:23:41;;;;;;;16.37;8.07;;;;;;;-8.62;100.00;102694.78;5008877;28;20855;-73
2023/02/09 07:26:12;;;;;;;16.03;7.97;;;;;;;-8.54;100.00;102697.06;5009477;28;20465;-73
2023/02/09 07:28:38;;;;;;;15.87;8.20;;;;;;;-8.53;100.00;102693.75;5007612;28;20976;-74
2023/02/09 07:31:07;;;;;;;14.07;7.33;;;;;;;-8.52;100.00;102688.81;5009919;28;20484;-73
2023/02/09 07:33:34;;;;;;;12.97;7.23;;;;;;;-8.44;100.00;102687.84;5010465;28;20453;-74
2023/02/09 07:36:05;;;;;;;14.53;8.23;;;;;;;-8.45;100.00;102687.69;4991206;28;20538;-74
2023/02/09 07:38:31;;;;;;;21.03;9.27;;;;;;;-8.38;100.00;102688.31;5008479;28;20543;-73
2023/02/09 07:40:58;;;;;;;11.20;7.47;;;;;;;-8.31;100.00;102681.22;5006645;28;20496;-74
2023/02/09 07:43:25;;;;;;;15.10;8.10;;;;;;;-8.08;100.00;102678.06;5010740;28;20952;-74
2023/02/09 07:45:52;;;;;;;20.57;9.77;;;;;;;-7.84;100.00;102680.06;5006050;28;20453;-73
2023/02/09 07:48:18;;;;;;;17.37;8.90;;;;;;;-7.54;100.00;102672.31;4987889;28;20469;-74
2023/02/09 07:50:48;;;;;;;18.97;8.87;;;;;;;-7.33;100.00;102679.06;4989748;28;20471;-72
2023/02/09 07:53:17;;;;;;;21.73;10.77;;;;;;;-7.02;100.00;102686.53;5004003;28;21127;-74
2023/02/09 07:55:43;;;;;;;20.70;9.87;;;;;;;-6.86;100.00;102684.44;5005348;28;20859;-74
2023/02/09 07:58:09;;;;;;;18.87;9.17;;;;;;;-6.61;100.00;102680.34;5010566;28;20451;-74
2023/02/09 08:00:37;;;;;;;17.37;9.77;;;;;;;-6.40;100.00;102681.09;5006610;28;20483;-73
2023/02/09 08:03:04;;;;;;;23.57;10.47;;;;;;;-6.12;100.00;102681.53;5004509;28;20594;-74
2023/02/09 08:05:35;;;;;;;18.33;9.90;;;;;;;-5.94;100.00;102677.78;5006204;28;20455;-73
2023/02/09 08:08:02;;;;;;;21.30;12.13;;;;;;;-5.62;100.00;102680.91;5011910;28;20457;-73
2023/02/09 08:10:30;;;;;;;21.73;11.33;;;;;;;-5.44;100.00;102676.28;5005053;28;20982;-73
2023/02/09 08:12:59;;;;;;;19.57;9.53;;;;;;;-5.31;100.00;102676.38;5007491;28;20533;-75
2023/02/09 08:15:30;;;;;;;28.73;13.73;;;;;;;-5.13;100.00;102671.72;5004307;28;20979;-74
2023/02/09 08:17:59;;;;;;;54.17;21.20;;;;;;;-4.91;100.00;102675.75;5015450;28;20466;-74
2023/02/09 08:20:28;;;;;;;33.13;14.97;;;;;;;-4.80;100.00;102683.38;5012774;28;20475;-73
2023/02/09 08:23:00;;;;;;;31.77;16.30;;;;;;;-4.52;100.00;102679.28;4985533;28;20476;-74
2023/02/09 08:25:26;;;;;;;26.83;13.90;;;;;;;-4.40;100.00;102681.00;5002976;28;20449;-74
2023/02/09 08:27:55;;;;;;;26.53;12.77;;;;;;;-4.20;100.00;102679.78;5002169;28;20483;-74
2023/02/09 08:30:22;;;;;;;26.47;13.60;;;;;;;-4.01;100.00;102687.00;5006115;28;20471;-73
2023/02/09 08:32:48;;;;;;;27.73;14.27;;;;;;;-3.94;100.00;102682.28;5002969;28;20542;-73
2023/02/09 08:35:15;;;;;;;28.83;13.83;;;;;;;-3.74;100.00;102691.28;5005257;28;20462;-74
2023/02/09 08:37:41;;;;;;;28.90;13.30;;;;;;;-3.68;100.00;102697.63;5000006;28;20778;-74
2023/02/09 08:40:09;;;;;;;29.30;12.40;;;;;;;-3.50;100.00;102700.50;5010711;28;20885;-74
2023/02/09 08:42:35;;;;;;;35.53;14.30;;;;;;;-3.42;100.00;102698.44;5004109;28;20469;-73
2023/02/09 08:45:03;;;;;;;23.83;12.97;;;;;;;-3.36;100.00;102688.63;5001469;28;20526;-72
2023/02/09 08:47:30;;;;;;;34.07;14.50;;;;;;;-3.25;100.00;102702.06;4999382;28;20465;-74
2023/02/09 08:49:57;;;;;;;34.70;15.20;;;;;;;-3.16;100.00;102695.00;5002482;28;20481;-74
2023/02/09 08:52:24;;;;;;;27.23;12.77;;;;;;;-3.06;100.00;102679.47;4999497;28;20469;-73
2023/02/09 08:54:50;;;;;;;25.87;12.73;;;;;;;-2.90;100.00;102686.41;4994468;28;20462;-74
2023/02/09 08:57:17;;;;;;;28.13;13.03;;;;;;;-2.78;100.00;102682.84;5000957;28;20459;-74
2023/02/09 08:59:43;;;;;;;39.67;13.70;;;;;;;-2.69;100.00;102689.41;5001675;28;20478;-74
2023/02/09 09:02:11;;;;;;;27.30;13.17;;;;;;;-2.60;100.00;102695.84;5003856;28;20516;-75
2023/02/09 09:04:37;;;;;;;34.03;12.00;;;;;;;-2.52;100.00;102697.19;5004017;28;20805;-75
2023/02/09 09:07:03;;;;;;;27.03;10.93;;;;;;;-2.44;100.00;102696.00;5002503;28;20461;-74
2023/02/09 09:09:30;;;;;;;24.00;10.97;;;;;;;-2.35;100.00;102703.34;5001870;28;20483;-74
2023/02/09 09:11:56;;;;;;;18.80;10.40;;;;;;;-2.29;100.00;102706.25;5006460;28;20224;-73
2023/02/09 09:14:25;;;;;;;27.83;9.80;;;;;;;-2.22;100.00;102704.94;5005681;28;20283;-74
2023/02/09 09:16:51;;;;;;;16.90;8.07;;;;;;;-2.08;100.00;102710.88;4990510;28;20474;-74
2023/02/09 09:19:19;;;;;;;14.93;7.43;;;;;;;-2.04;100.00;102710.25;5007011;28;20201;-74
2023/02/09 09:21:45;;;;;;;17.67;8.43;;;;;;;-2.01;100.00;102706.19;4991375;28;20701;-74
2023/02/09 09:24:12;;;;;;;21.17;7.27;;;;;;;-1.94;100.00;102707.44;5007100;28;20212;-75
2023/02/09 09:26:38;;;;;;;22.43;7.57;;;;;;;-1.87;100.00;102701.00;5004329;28;20208;-75
2023/02/09 09:29:05;;;;;;;13.97;8.00;;;;;;;-1.82;100.00;102700.47;5007913;28;20911;-74
2023/02/09 09:31:32;;;;;;;17.73;7.70;;;;;;;-1.78;100.00;102702.41;5003637;28;20231;-73
2023/02/09 09:33:58;;;;;;;12.37;7.13;;;;;;;-1.71;100.00;102703.66;5003704;28;20209;-74
2023/02/09 09:36:26;;;;;;;10.20;6.07;;;;;;;-1.69;100.00;102701.19;4988711;28;20207;-73
2023/02/09 09:39:20;;;;;;;20.43;7.37;;;;;;;-1.64;100.00;102699.78;5007173;28;20201;-74
2023/02/09 09:41:49;;;;;;;15.40;6.87;;;;;;;-1.59;100.00;102704.34;5001753;28;20221;-75
2023/02/09 09:44:18;;;;;;;11.33;6.87;;;;;;;-1.49;100.00;102705.78;5005439;28;20193;-75
2023/02/09 09:46:48;;;;;;;18.57;7.37;;;;;;;-1.46;100.00;102695.72;5002387;28;20211;-73
2023/02/09 09:49:22;;;;;;;13.27;7.43;;;;;;;-1.41;100.00;102694.25;4986932;28;20617;-74
2023/02/09 09:51:54;;;;;;;13.53;6.53;;;;;;;-1.36;100.00;102708.19;5004239;28;20220;-75
2023/02/09 09:54:24;;;;;;;15.90;7.13;;;;;;;-1.23;100.00;102719.13;5006263;28;20193;-75
2023/02/09 09:56:51;;;;;;;13.30;6.70;;;;;;;-1.21;100.00;102715.00;4990097;28;20737;-73
2023/02/09 09:59:20;;;;;;;13.47;6.57;;;;;;;-1.16;100.00;102721.25;5003162;28;20227;-73
2023/02/09 10:01:50;;;;;;;12.23;6.40;;;;;;;-1.13;100.00;102717.97;4997280;28;20224;-75
2023/02/09 10:04:16;;;;;;;14.43;7.50;;;;;;;-1.06;100.00;102710.69;5004025;28;20236;-73
2023/02/09 10:06:45;;;;;;;11.87;6.57;;;;;;;-1.02;100.00;102709.19;5000721;28;20685;-75
2023/02/09 10:09:24;;;;;;;12.40;7.23;;;;;;;-0.99;100.00;102714.47;5006799;28;20708;-73
2023/02/09 10:11:59;;;;;;;14.00;6.47;;;;;;;-0.96;100.00;102705.28;5000840;28;20224;-74
2023/02/09 10:14:26;;;;;;;13.13;7.07;;;;;;;-0.90;100.00;102706.41;5004288;28;20275;-75
2023/02/09 10:16:52;;;;;;;13.37;6.70;;;;;;;-0.83;100.00;102711.94;5003419;28;20216;-74
2023/02/09 10:19:21;;;;;;;14.23;6.97;;;;;;;-0.78;100.00;102699.41;5007302;28;20585;-75
2023/02/09 10:21:48;;;;;;;16.57;7.27;;;;;;;-0.72;100.00;102702.31;5006006;28;20212;-75
2023/02/09 10:24:23;;;;;;;15.50;7.53;;;;;;;-0.66;100.00;102701.75;5004454;28;20204;-73
2023/02/09 10:27:03;;;;;;;11.77;6.50;;;;;;;-0.64;100.00;102695.88;4999436;28;20271;-74
2023/02/09 10:29:30;;;;;;;11.53;6.10;;;;;;;-0.62;100.00;102688.28;5002531;28;20319;-75
2023/02/09 10:32:02;;;;;;;13.63;6.50;;;;;;;-0.60;100.00;102689.25;5001129;28;20691;-75
2023/02/09 10:34:32;;;;;;;11.97;6.83;;;;;;;-0.49;100.00;102692.34;5002555;28;20558;-75
2023/02/09 10:37:16;;;;;;;12.27;6.57;;;;;;;-0.43;100.00;102688.44;5004192;28;20228;-75
2023/02/09 10:39:45;;;;;;;12.50;6.67;;;;;;;-0.33;100.00;102687.25;5004909;28;20754;-74
2023/02/09 10:42:19;;;;;;;13.93;6.20;;;;;;;-0.23;100.00;102686.91;4999275;28;20303;-74
2023/02/09 10:44:48;;;;;;;9.93;5.97;;;;;;;-0.21;100.00;102684.44;5000281;28;20666;-74
2023/02/09 10:47:27;;;;;;;12.93;6.53;;;;;;;-0.20;100.00;102689.63;5004647;28;20211;-74
2023/02/09 10:49:55;;;;;;;10.40;6.70;;;;;;;-0.10;100.00;102675.59;5004005;28;20208;-75
2023/02/09 10:52:24;;;;;;;10.70;6.53;;;;;;;-0.08;100.00;102670.53;5002044;28;20208;-73
2023/02/09 10:54:55;;;;;;;11.30;6.30;;;;;;;-0.04;100.00;102673.31;5001497;28;20205;-74
2023/02/09 10:57:25;;;;;;;13.83;7.33;;;;;;;0.00;100.00;102676.94;5001369;28;20821;-75
2023/02/09 10:59:53;;;;;;;13.67;6.60;;;;;;;0.09;100.00;102673.94;5002115;28;20352;-74
2023/02/09 11:02:36;;;;;;;10.07;6.00;;;;;;;0.11;100.00;102670.66;4985731;28;20428;-74
2023/02/09 11:05:06;;;;;;;11.00;6.13;;;;;;;0.11;100.00;102672.34;4997373;28;20219;-74
2023/02/09 11:07:37;;;;;;;12.07;6.57;;;;;;;0.21;100.00;102663.41;4999348;28;20353;-74
2023/02/09 11:10:12;;;;;;;11.93;6.83;;;;;;;0.22;100.00;102660.91;5011396;28;20216;-75
2023/02/09 11:12:39;;;;;;;12.67;6.80;;;;;;;0.28;100.00;102660.31;5007752;28;20246;-74
2023/02/09 11:15:12;;;;;;;11.70;6.37;;;;;;;0.31;100.00;102643.41;5011082;28;20280;-74
2023/02/09 11:17:44;;;;;;;10.63;6.03;;;;;;;0.33;98.45;102641.78;5003494;28;20204;-75
2023/02/09 11:20:20;;;;;;;12.57;6.73;;;;;;;0.39;97.46;102633.50;5003820;28;20205;-75
2023/02/09 11:23:20;;;;;;;10.87;6.37;;;;;;;0.41;95.83;102639.59;4995811;28;20233;-75
2023/02/09 11:25:57;;;;;;;9.60;5.77;;;;;;;0.44;93.50;102632.03;5000024;28;20200;-75
2023/02/09 11:28:34;;;;;;;12.47;6.50;;;;;;;0.48;95.45;102622.81;4996031;28;20275;-72
2023/02/09 11:31:17;;;;;;;11.30;6.13;;;;;;;0.55;91.53;102622.28;4999616;28;20228;-75